Time;durP1;ratioP1;P1;durP2;ratioP2;P2;SDS_P1;SDS_P2;PMS_P1;PMS_P2;Temp;Humidity;BMP_temperature;BMP_pressure;BME280_temperature;BME280_humidity;BME280_pressure;Samples;Min_cycle;Max_cycle;Signal;HPM_P1;HPM_P2
2023/10/11 00:00:39;;;;;;;17.25;6.78;;;17.00;99.90;;;;;;5048068;28;20108;-51
2023/10/11 00:03:05;;;;;;;20.38;6.63;;;17.00;99.90;;;;;;5047064;28;20493;-49
2023/10/11 00:05:36;;;;;;;14.43;7.38;;;17.00;99.90;;;;;;5047934;28;20482;-48
2023/10/11 00:08:02;;;;;;;17.42;7.03;;;17.00;99.90;;;;;;5047743;28;20108;-47
2023/10/11 00:10:28;;;;;;;14.73;6.50;;;17.00;99.90;;;;;;5047891;28;20037;-50
2023/10/11 00:12:58;;;;;;;13.98;6.88;;;17.10;99.90;;;;;;5047408;28;20055;-51
2023/10/11 00:15:29;;;;;;;17.17;6.20;;;17.10;99.90;;;;;;5040488;28;20025;-52
2023/10/11 00:17:57;;;;;;;;;;;17.00;99.90;;;;;;5041777;28;20021;-52
2023/10/11 00:23:23;;;;;;;13.60;7.22;;;17.10;99.90;;;;;;5039589;28;20486;-52
2023/10/11 00:25:54;;;;;;;14.70;6.53;;;17.10;99.90;;;;;;5042030;28;20021;-51
2023/10/11 00:28:26;;;;;;;14.43;7.13;;;17.00;99.90;;;;;;5045320;28;20036;-51
2023/10/11 00:30:58;;;;;;;16.75;7.47;;;17.00;99.90;;;;;;5040404;28;20609;-50
2023/10/11 00:33:24;;;;;;;10.40;6.30;;;17.00;99.90;;;;;;5039397;28;20037;-51
2023/10/11 00:35:50;;;;;;;17.08;7.50;;;16.90;99.90;;;;;;5046466;28;20052;-51
2023/10/11 00:38:20;;;;;;;20.60;7.45;;;17.00;99.90;;;;;;5042475;28;20021;-51
2023/10/11 00:40:49;;;;;;;16.38;6.82;;;16.90;99.90;;;;;;5047870;28;20419;-52
2023/10/11 00:43:21;;;;;;;15.45;6.93;;;16.90;99.90;;;;;;5045583;28;20025;-52
2023/10/11 00:45:48;;;;;;;14.80;6.70;;;16.90;99.90;;;;;;5046436;28;20036;-52
2023/10/11 00:48:19;;;;;;;13.02;6.43;;;16.90;99.90;;;;;;5039571;28;20532;-51
2023/10/11 00:50:45;;;;;;;;;;;16.90;99.90;;;;;;5048499;28;20072;-52
2023/10/11 00:53:12;;;;;;;10.70;6.47;;;16.90;99.90;;;;;;5043683;28;19909;-52
2023/10/11 00:55:38;;;;;;;17.10;6.78;;;16.90;99.90;;;;;;5041149;28;20021;-51
2023/10/11 00:58:04;;;;;;;17.73;6.78;;;16.90;99.90;;;;;;5046601;28;21300;-51
2023/10/11 01:00:35;;;;;;;15.30;7.10;;;16.90;99.90;;;;;;5041597;28;20112;-52
2023/10/11 01:03:01;;;;;;;15.27;6.22;;;16.90;99.90;;;;;;5044393;28;20026;-52
2023/10/11 01:05:26;;;;;;;13.93;6.47;;;16.90;99.90;;;;;;5048663;28;20098;-52
2023/10/11 01:07:54;;;;;;;20.42;7.60;;;16.90;99.90;;;;;;5040589;28;20029;-47
2023/10/11 01:10:23;;;;;;;13.50;6.57;;;16.80;99.90;;;;;;5040915;28;20449;-48
2023/10/11 01:12:49;;;;;;;12.57;6.77;;;16.90;99.90;;;;;;5038883;28;20021;-47
2023/10/11 01:15:19;;;;;;;11.27;6.53;;;16.90;99.90;;;;;;5043856;28;20083;-48
2023/10/11 01:17:45;;;;;;;12.32;7.47;;;16.90;99.90;;;;;;5048976;28;20371;-47
2023/10/11 01:20:14;;;;;;;17.83;6.95;;;16.90;99.90;;;;;;5043758;28;20025;-47
2023/10/11 01:22:43;;;;;;;13.30;6.30;;;17.00;99.90;;;;;;5040909;28;20099;-50
2023/10/11 01:25:12;;;;;;;14.35;6.80;;;17.00;99.90;;;;;;5045938;28;20024;-48
2023/10/11 01:27:39;;;;;;;12.32;5.45;;;16.90;99.90;;;;;;5052092;28;20031;-48
2023/10/11 01:30:07;;;;;;;11.93;6.60;;;17.00;99.90;;;;;;5043861;28;20033;-49
2023/10/11 01:32:37;;;;;;;16.92;7.22;;;16.90;99.90;;;;;;5042098;28;20060;-49
2023/10/11 01:35:04;;;;;;;14.20;6.10;;;16.90;99.90;;;;;;5046474;28;20454;-50
2023/10/11 01:37:36;;;;;;;12.27;6.63;;;16.90;99.90;;;;;;5047866;28;20068;-48
2023/10/11 01:40:07;;;;;;;17.90;7.18;;;17.00;99.90;;;;;;5050891;28;20029;-47
2023/10/11 01:42:33;;;;;;;9.85;6.47;;;17.00;99.90;;;;;;5048090;28;20026;-48
2023/10/11 01:45:00;;;;;;;14.13;6.88;;;17.00;99.90;;;;;;5050371;28;20487;-48
2023/10/11 01:47:26;;;;;;;11.90;6.63;;;17.00;99.90;;;;;;5045652;28;20086;-48
2023/10/11 01:49:52;;;;;;;14.25;6.38;;;17.00;99.90;;;;;;5046073;28;20160;-48
2023/10/11 01:52:18;;;;;;;15.23;6.18;;;17.00;99.90;;;;;;5044492;28;20068;-50
2023/10/11 01:54:43;;;;;;;14.20;7.57;;;17.10;99.90;;;;;;5045717;28;20117;-50
2023/10/11 01:57:10;;;;;;;18.35;6.70;;;17.10;99.90;;;;;;5051136;28;20032;-50
2023/10/11 01:59:35;;;;;;;21.25;6.85;;;17.10;99.90;;;;;;5049465;28;20390;-50
2023/10/11 02:02:03;;;;;;;18.27;6.60;;;17.10;99.90;;;;;;5049814;28;20111;-48
2023/10/11 02:04:29;;;;;;;14.80;7.45;;;17.10;99.90;;;;;;5044553;28;20391;-48
2023/10/11 02:06:55;;;;;;;13.30;6.03;;;17.10;99.90;;;;;;5052043;28;20128;-49
2023/10/11 02:09:21;;;;;;;11.10;6.22;;;17.10;99.90;;;;;;5051802;28;20514;-51
2023/10/11 02:17:17;;;;;;;12.88;6.15;;;17.20;99.90;;;;;;4995620;28;20187;-80
2023/10/11 02:20:31;;;;;;;17.15;6.90;;;17.20;99.90;;;;;;4988839;28;20040;-80
2023/10/11 02:23:11;;;;;;;14.98;5.95;;;17.20;99.90;;;;;;4985559;28;20030;-80
2023/10/11 02:26:03;;;;;;;13.35;6.38;;;17.20;99.90;;;;;;4976051;28;20027;-80
2023/10/11 02:28:32;;;;;;;10.07;5.50;;;17.30;99.90;;;;;;4970492;28;20054;-81
2023/10/11 02:30:57;;;;;;;10.15;5.60;;;17.20;99.90;;;;;;4993900;28;20026;-81
2023/10/11 02:33:32;;;;;;;13.18;5.95;;;17.20;99.90;;;;;;4976057;28;20113;-81
2023/10/11 02:36:21;;;;;;;11.95;6.65;;;17.20;99.90;;;;;;4975624;28;20084;-81
2023/10/11 02:39:10;;;;;;;11.80;6.22;;;17.20;99.90;;;;;;4978994;28;20030;-81
2023/10/11 02:41:41;;;;;;;12.35;6.03;;;17.30;99.90;;;;;;4988953;28;20026;-80
2023/10/11 02:44:06;;;;;;;13.52;5.70;;;17.30;99.90;;;;;;4975337;28;20083;-80
2023/10/11 02:50:17;;;;;;;14.07;6.15;;;17.30;99.90;;;;;;4992852;28;20073;-80
2023/10/11 02:53:05;;;;;;;11.50;5.95;;;17.30;99.90;;;;;;4976114;28;20038;-81
2023/10/11 02:55:38;;;;;;;10.57;5.35;;;17.30;99.90;;;;;;4988444;28;20022;-82
2023/10/11 02:58:21;;;;;;;11.25;5.32;;;17.30;99.90;;;;;;4976641;28;20060;-84
2023/10/11 03:00:47;;;;;;;11.43;5.15;;;17.30;99.90;;;;;;4975963;28;20038;-80
2023/10/11 03:03:15;;;;;;;12.95;5.93;;;17.20;99.90;;;;;;4975280;28;20077;-80
2023/10/11 03:05:41;;;;;;;13.75;6.10;;;17.20;99.90;;;;;;4975731;28;20027;-80
2023/10/11 03:08:19;;;;;;;10.63;5.65;;;17.20;99.90;;;;;;4992663;28;20077;-79
2023/10/11 03:10:59;;;;;;;10.60;5.65;;;17.20;99.90;;;;;;4972327;28;20027;-80
2023/10/11 03:13:30;;;;;;;11.82;5.50;;;17.20;99.90;;;;;;4975344;28;20562;-80
2023/10/11 03:16:02;;;;;;;13.65;6.03;;;17.30;99.90;;;;;;4972897;28;20046;-82
2023/10/11 03:18:39;;;;;;;12.25;6.03;;;17.20;99.90;;;;;;4974738;28;20034;-80
2023/10/11 03:21:17;;;;;;;12.00;5.40;;;17.20;99.90;;;;;;4975150;28;20531;-80
2023/10/11 03:23:51;;;;;;;9.82;5.70;;;17.20;99.90;;;;;;4974442;28;20045;-80
2023/10/11 03:26:30;;;;;;;10.27;5.50;;;17.20;99.90;;;;;;4991978;28;20100;-81
2023/10/11 03:28:59;;;;;;;17.05;6.85;;;17.30;99.90;;;;;;4975429;28;20026;-82
2023/10/11 03:31:31;;;;;;;14.45;5.95;;;17.30;99.90;;;;;;4992908;28;20026;-80
2023/10/11 03:33:59;;;;;;;12.38;5.53;;;17.30;99.90;;;;;;4974580;28;20037;-81
2023/10/11 03:36:59;;;;;;;14.40;6.18;;;17.30;99.90;;;;;;4975272;28;20030;-81
2023/10/11 03:42:14;;;;;;;11.40;5.35;;;17.40;99.90;;;;;;4992602;28;20022;-80
2023/10/11 03:44:47;;;;;;;12.15;5.55;;;17.30;99.90;;;;;;4974895;28;20027;-81
2023/10/11 03:47:27;;;;;;;10.52;5.55;;;17.30;99.90;;;;;;4990903;28;20030;-81
2023/10/11 03:49:53;;;;;;;10.02;5.32;;;17.30;99.90;;;;;;4992271;28;20030;-81
2023/10/11 03:52:30;;;;;;;14.25;6.28;;;17.20;99.90;;;;;;4975335;28;20507;-80
2023/10/11 03:55:15;;;;;;;11.80;5.32;;;17.30;99.90;;;;;;4974404;28;20065;-81
2023/10/11 03:58:00;;;;;;;;;;;;;;;;;;;;;
2023/10/11 04:00:46;;;;;;;15.13;5.47;;;17.20;99.90;;;;;;4983904;28;20340;-81
2023/10/11 04:03:14;;;;;;;11.73;6.10;;;17.10;99.90;;;;;;4974211;28;20030;-81
2023/10/11 04:05:40;;;;;;;11.02;6.00;;;17.10;99.90;;;;;;4974276;28;20113;-81
2023/10/11 04:08:11;;;;;;;13.02;5.63;;;17.10;99.90;;;;;;4974399;28;20045;-81
2023/10/11 04:10:39;;;;;;;12.93;6.30;;;17.20;99.90;;;;;;4992173;28;20042;-81
2023/10/11 04:13:15;;;;;;;11.55;5.90;;;17.10;99.90;;;;;;4981549;28;20030;-81
2023/10/11 04:15:52;;;;;;;11.35;6.40;;;17.20;99.90;;;;;;4978075;28;20431;-80
2023/10/11 04:18:33;;;;;;;14.02;5.35;;;17.20;99.90;;;;;;4973748;28;20053;-81
2023/10/11 04:24:06;;;;;;;11.13;5.53;;;17.10;99.90;;;;;;4919512;29;20540;-80
2023/10/11 04:26:53;;;;;;;12.27;5.45;;;17.10;99.90;;;;;;4910691;29;20040;-81
2023/10/11 04:29:25;;;;;;;10.38;5.63;;;17.10;99.90;;;;;;4952480;28;20190;-80
2023/10/11 04:34:57;;;;;;;;;;;17.10;99.90;;;;;;4897643;29;20036;-80
2023/10/11 04:37:43;;;;;;;12.35;5.63;;;17.10;99.90;;;;;;4963973;28;20275;-81
2023/10/11 04:40:23;;;;;;;14.07;5.63;;;17.10;99.90;;;;;;4973760;28;20038;-80
2023/10/11 04:43:04;;;;;;;15.82;5.50;;;17.00;99.90;;;;;;4975059;28;20101;-82
2023/10/11 04:45:46;;;;;;;11.52;5.68;;;17.10;99.90;;;;;;4991045;28;20480;-82
2023/10/11 04:48:18;;;;;;;11.68;6.05;;;17.10;99.90;;;;;;4957969;28;20034;-80
2023/10/11 04:50:50;;;;;;;11.38;5.50;;;17.10;99.90;;;;;;4977690;28;20522;-81
2023/10/11 04:53:27;;;;;;;14.38;5.82;;;17.10;99.90;;;;;;4993843;28;20040;-81
2023/10/11 04:56:15;;;;;;;13.48;5.85;;;17.20;99.90;;;;;;4963872;28;20030;-81
2023/10/11 04:58:49;;;;;;;15.02;6.63;;;17.20;99.90;;;;;;4988789;28;20025;-79
2023/10/11 05:01:22;;;;;;;10.52;5.90;;;17.20;99.90;;;;;;4978937;28;20533;-82
2023/10/11 05:03:59;;;;;;;14.43;5.30;;;17.10;99.90;;;;;;4996167;28;20431;-81
2023/10/11 05:06:31;;;;;;;12.52;5.57;;;17.10;99.90;;;;;;4980267;28;20446;-81
2023/10/11 05:09:13;;;;;;;10.60;5.90;;;17.10;99.90;;;;;;4981489;28;20031;-81
2023/10/11 05:14:30;;;;;;;13.63;5.68;;;17.10;99.90;;;;;;4998029;28;20499;-83
2023/10/11 05:19:56;;;;;;;14.13;6.32;;;17.00;99.90;;;;;;5001420;28;20145;-82
2023/10/11 05:28:15;;;;;;;8.63;5.32;;;17.10;99.90;;;;;;5003053;28;20098;-82
2023/10/11 05:30:44;;;;;;;10.48;6.13;;;17.00;99.90;;;;;;4999192;28;20054;-82
2023/10/11 05:36:14;;;;;;;11.45;6.05;;;17.00;99.90;;;;;;4997693;28;20124;-81
2023/10/11 05:53:14;;;;;;;15.75;6.65;;;17.00;99.90;;;;;;4997900;28;20046;-83
2023/10/11 05:56:24;;;;;;;14.35;5.70;;;16.90;99.90;;;;;;4981387;28;20026;-82
2023/10/11 05:58:55;;;;;;;15.70;6.30;;;17.00;99.90;;;;;;4990918;28;20062;-82
2023/10/11 06:01:22;;;;;;;9.77;5.65;;;17.00;99.90;;;;;;4991460;28;20027;-80
2023/10/11 06:03:51;;;;;;;18.83;7.28;;;17.00;99.90;;;;;;4980565;28;20539;-81
2023/10/11 06:09:26;;;;;;;12.15;6.20;;;17.00;99.90;;;;;;5003024;28;20041;-84
2023/10/11 06:11:51;;;;;;;19.80;7.13;;;17.10;99.90;;;;;;4984461;28;20029;-85
2023/10/11 06:14:18;;;;;;;14.35;6.43;;;17.10;99.90;;;;;;5001756;28;20034;-85
2023/10/11 06:16:49;;;;;;;13.75;6.07;;;17.10;99.90;;;;;;5003645;28;20038;-86
2023/10/11 06:19:43;;;;;;;14.25;6.43;;;17.10;99.90;;;;;;4984231;28;20566;-85
2023/10/11 06:22:17;;;;;;;12.10;6.43;;;17.20;99.90;;;;;;4922365;29;20131;-83
2023/10/11 06:24:44;;;;;;;12.88;5.60;;;17.20;99.90;;;;;;5001385;28;20034;-85
2023/10/11 06:30:09;;;;;;;20.13;6.25;;;17.20;99.90;;;;;;5001496;28;20028;-84
2023/10/11 06:32:43;;;;;;;12.90;6.10;;;17.30;99.90;;;;;;4985996;28;20040;-84
2023/10/11 06:35:18;;;;;;;14.15;5.60;;;17.30;99.90;;;;;;4986099;28;20085;-85
2023/10/11 06:37:52;;;;;;;17.85;6.97;;;17.30;99.90;;;;;;4986125;28;20483;-85
2023/10/11 06:40:38;;;;;;;9.95;5.40;;;17.30;99.90;;;;;;4985988;28;20437;-87
2023/10/11 06:43:12;;;;;;;9.27;5.20;;;17.30;99.90;;;;;;4986258;28;20023;-84
2023/10/11 06:45:40;;;;;;;12.23;6.45;;;17.30;99.90;;;;;;4967356;28;20062;-84
2023/10/11 06:48:08;;;;;;;16.35;6.70;;;17.30;99.90;;;;;;4970605;28;20030;-84
2023/10/11 06:51:13;;;;;;;13.57;6.25;;;17.30;99.90;;;;;;4987031;28;20026;-83
2023/10/11 06:53:42;;;;;;;13.60;5.65;;;17.30;99.90;;;;;;4967751;28;20461;-85
2023/10/11 06:56:08;;;;;;;13.35;5.90;;;17.30;99.90;;;;;;4967354;28;20034;-84
2023/10/11 06:58:45;;;;;;;13.70;6.22;;;17.40;99.90;;;;;;4981952;28;20031;-85
2023/10/11 07:01:14;;;;;;;14.02;6.18;;;17.40;99.90;;;;;;4982699;28;20569;-84
2023/10/11 07:03:40;;;;;;;16.60;6.10;;;17.40;99.90;;;;;;4999738;28;20050;-85
2023/10/11 07:06:22;;;;;;;14.10;5.95;;;17.40;99.90;;;;;;4978013;28;20026;-85
2023/10/11 07:08:50;;;;;;;12.38;6.07;;;17.40;99.90;;;;;;4987003;28;20026;-85
2023/10/11 07:11:50;;;;;;;11.07;5.32;;;17.50;99.90;;;;;;4990938;28;20030;-85
2023/10/11 07:14:18;;;;;;;13.48;6.32;;;17.50;99.90;;;;;;4983433;28;20050;-85
2023/10/11 07:16:47;;;;;;;14.30;5.65;;;17.50;99.90;;;;;;4985839;28;20034;-86
2023/10/11 07:19:15;;;;;;;11.25;5.53;;;17.50;99.90;;;;;;5000855;28;20045;-85
2023/10/11 07:27:26;;;;;;;15.30;5.93;;;17.70;99.90;;;;;;4964725;28;20498;-85
2023/10/11 07:29:54;;;;;;;13.20;6.03;;;17.90;99.90;;;;;;4990812;28;20022;-85
2023/10/11 07:32:21;;;;;;;11.63;5.28;;;17.90;99.90;;;;;;4982157;28;20026;-84
2023/10/11 07:34:54;;;;;;;12.70;5.22;;;18.00;99.90;;;;;;4984845;28;20258;-87
2023/10/11 07:37:26;;;;;;;15.23;6.13;;;18.00;99.90;;;;;;4970797;28;20023;-86
2023/10/11 07:40:00;;;;;;;15.18;6.13;;;18.10;99.90;;;;;;4983636;28;20687;-86
2023/10/11 07:42:27;;;;;;;12.15;4.97;;;18.10;99.90;;;;;;5001149;28;20026;-85
2023/10/11 07:44:52;;;;;;;12.20;5.45;;;18.10;99.90;;;;;;4970060;28;20019;-86
2023/10/11 07:47:21;;;;;;;11.73;5.47;;;18.10;99.90;;;;;;4964056;28;20055;-86
2023/10/11 07:49:49;;;;;;;10.98;5.60;;;18.10;99.90;;;;;;4981142;28;20034;-85
2023/10/11 07:52:19;;;;;;;12.15;5.18;;;18.10;99.90;;;;;;4984704;28;20050;-85
2023/10/11 07:54:44;;;;;;;16.87;6.33;;;18.20;99.90;;;;;;4984700;28;20022;-85
2023/10/11 07:57:17;;;;;;;14.13;5.93;;;18.20;99.90;;;;;;5001177;28;20072;-86
2023/10/11 07:59:53;;;;;;;13.23;6.15;;;18.30;99.90;;;;;;4984617;28;20054;-85
2023/10/11 08:02:32;;;;;;;12.52;4.97;;;18.30;99.90;;;;;;4988692;28;20018;-86
2023/10/11 08:04:58;;;;;;;9.63;5.38;;;18.30;99.90;;;;;;5001337;28;20026;-85
2023/10/11 08:07:24;;;;;;;12.25;5.97;;;18.40;99.90;;;;;;5001272;28;20018;-85
2023/10/11 08:09:53;;;;;;;11.43;5.68;;;18.50;99.90;;;;;;4985052;28;20041;-84
2023/10/11 08:12:23;;;;;;;11.40;5.32;;;18.70;99.90;;;;;;5000915;28;20073;-85
2023/10/11 08:14:53;;;;;;;14.97;6.13;;;18.70;99.90;;;;;;4981106;28;20104;-85
2023/10/11 08:17:29;;;;;;;12.63;5.90;;;18.80;99.90;;;;;;4981312;28;20037;-86
2023/10/11 08:19:55;;;;;;;11.93;5.60;;;18.80;99.90;;;;;;4999074;28;20022;-86
2023/10/11 08:22:23;;;;;;;13.52;5.43;;;18.90;99.90;;;;;;4998348;28;20022;-86
2023/10/11 08:24:50;;;;;;;12.70;6.22;;;19.00;99.90;;;;;;4981669;28;20026;-85
2023/10/11 08:27:27;;;;;;;16.95;5.68;;;19.10;99.90;;;;;;4998841;28;20018;-85
2023/10/11 08:30:17;;;;;;;13.63;5.82;;;19.20;99.90;;;;;;4994751;28;20011;-84
2023/10/11 08:32:50;;;;;;;14.75;5.47;;;19.40;99.90;;;;;;4977587;28;20030;-85
2023/10/11 08:35:31;;;;;;;11.18;5.90;;;19.50;99.90;;;;;;4997605;28;20030;-84
2023/10/11 08:38:02;;;;;;;;;;;19.70;99.90;;;;;;4997555;28;20065;-84
2023/10/11 08:40:39;;;;;;;12.82;5.30;;;19.90;99.90;;;;;;4980778;28;19977;-85
2023/10/11 08:43:07;;;;;;;11.68;6.22;;;20.20;99.90;;;;;;4975276;28;20033;-84
2023/10/11 08:46:11;;;;;;;9.68;5.13;;;20.30;99.90;;;;;;4974673;28;20054;-84
2023/10/11 08:48:40;;;;;;;13.77;6.50;;;20.60;99.90;;;;;;4973876;28;20038;-86
2023/10/11 08:51:12;;;;;;;9.43;5.47;;;20.80;99.90;;;;;;4990620;28;20061;-84
2023/10/11 08:54:00;;;;;;;11.27;5.55;;;21.40;99.50;;;;;;4983014;28;20030;-84
2023/10/11 08:56:25;;;;;;;15.38;5.75;;;21.90;97.80;;;;;;4985357;28;20050;-85
2023/10/11 08:58:53;;;;;;;8.80;4.88;;;22.80;96.50;;;;;;5005557;28;20507;-84
2023/10/11 09:01:29;;;;;;;13.52;5.40;;;23.60;94.90;;;;;;5005364;28;20026;-85
2023/10/11 09:04:13;;;;;;;7.82;4.78;;;24.20;92.60;;;;;;4988728;28;20109;-85
2023/10/11 09:06:55;;;;;;;9.68;4.72;;;25.00;91.50;;;;;;4988072;28;20056;-85
2023/10/11 09:09:59;;;;;;;13.15;5.65;;;26.00;89.30;;;;;;4983037;28;19998;-84
2023/10/11 09:12:24;;;;;;;9.40;5.10;;;26.10;86.40;;;;;;4877026;29;20130;-86
2023/10/11 09:15:04;;;;;;;7.43;4.30;;;26.50;86.10;;;;;;4919526;28;20061;-85
2023/10/11 09:17:38;;;;;;;8.10;4.63;;;26.90;82.90;;;;;;5002819;28;20046;-84
2023/10/11 09:20:25;;;;;;;10.77;4.82;;;26.30;83.60;;;;;;4985116;28;20021;-84
2023/10/11 09:22:52;;;;;;;9.23;4.53;;;26.30;84.30;;;;;;4985506;28;20049;-84
2023/10/11 09:25:23;;;;;;;9.40;5.25;;;26.20;84.60;;;;;;5003852;28;20026;-84
2023/10/11 09:27:58;;;;;;;11.40;5.90;;;26.00;83.80;;;;;;4986250;28;20069;-84
2023/10/11 09:30:27;;;;;;;8.50;5.93;;;26.20;83.50;;;;;;5002842;28;20022;-85
2023/10/11 09:32:59;;;;;;;11.30;4.90;;;26.70;81.60;;;;;;4982711;28;20019;-85
2023/10/11 09:35:33;;;;;;;9.73;4.50;;;26.90;80.70;;;;;;4982499;28;20596;-84
2023/10/11 09:37:59;;;;;;;9.23;4.88;;;27.10;80.40;;;;;;4987195;28;20019;-84
2023/10/11 09:40:32;;;;;;;9.38;4.47;;;27.30;78.80;;;;;;4987547;28;20113;-85
2023/10/11 09:43:06;;;;;;;8.90;4.18;;;28.00;79.20;;;;;;4987622;28;20019;-84
2023/10/11 09:45:53;;;;;;;8.35;4.97;;;27.80;77.60;;;;;;4987006;28;20030;-84
2023/10/11 09:48:27;;;;;;;8.93;4.75;;;27.70;77.60;;;;;;4984410;28;20023;-85
2023/10/11 09:50:57;;;;;;;7.95;4.88;;;27.50;77.30;;;;;;4979333;28;20025;-84
2023/10/11 09:53:25;;;;;;;9.35;5.07;;;27.60;78.30;;;;;;4979924;28;20050;-85
2023/10/11 09:56:15;;;;;;;7.75;4.43;;;27.20;77.80;;;;;;4993299;28;20018;-85
2023/10/11 09:59:05;;;;;;;7.18;4.38;;;27.20;78.40;;;;;;4971194;28;20053;-85
2023/10/11 10:01:55;;;;;;;12.57;4.60;;;27.20;78.80;;;;;;4991895;28;20117;-84
2023/10/11 10:04:50;;;;;;;10.13;4.30;;;27.30;78.00;;;;;;4974066;28;20030;-85
2023/10/11 10:07:32;;;;;;;9.10;4.05;;;27.70;78.40;;;;;;4991476;28;20018;-84
2023/10/11 10:10:07;;;;;;;9.77;4.95;;;28.20;77.50;;;;;;4977266;28;20018;-84
2023/10/11 10:13:09;;;;;;;13.40;4.70;;;28.70;75.80;;;;;;4995444;28;20064;-83
2023/10/11 10:15:33;;;;;;;13.15;4.30;;;28.70;74.70;;;;;;4991734;28;20388;-83
2023/10/11 10:18:19;;;;;;;8.35;4.53;;;28.50;75.00;;;;;;4995529;28;20018;-85
2023/10/11 10:21:02;;;;;;;11.45;4.57;;;28.20;75.50;;;;;;4981029;28;20026;-87
2023/10/11 10:23:29;;;;;;;10.45;4.80;;;28.30;75.10;;;;;;4981545;28;20095;-85
2023/10/11 10:26:07;;;;;;;10.00;4.35;;;28.60;75.20;;;;;;4983141;28;20027;-87
2023/10/11 10:28:36;;;;;;;10.57;4.28;;;29.20;73.70;;;;;;4999100;28;20089;-86
2023/10/11 10:31:04;;;;;;;11.13;4.60;;;29.30;73.80;;;;;;4979732;28;20118;-86
2023/10/11 10:33:35;;;;;;;7.93;4.35;;;30.00;71.70;;;;;;4998924;28;20023;-86
2023/10/11 10:36:28;;;;;;;10.80;4.65;;;29.90;71.30;;;;;;4981396;28;20033;-86
2023/10/11 10:41:42;;;;;;;12.02;4.38;;;30.30;70.90;;;;;;5000759;28;20590;-86
2023/10/11 10:44:17;;;;;;;13.82;4.30;;;30.30;71.10;;;;;;4983515;28;20015;-86
2023/10/11 10:46:50;;;;;;;11.20;4.40;;;30.00;69.50;;;;;;4983088;28;20370;-87
2023/10/11 10:49:54;;;;;;;7.88;4.55;;;29.30;70.40;;;;;;4978189;28;20022;-86
2023/10/11 10:52:34;;;;;;;11.07;4.40;;;28.40;71.90;;;;;;4996372;28;20023;-87
2023/10/11 10:55:02;;;;;;;7.30;4.78;;;27.40;74.90;;;;;;4999566;28;20015;-86
2023/10/11 10:57:36;;;;;;;8.27;4.90;;;26.60;76.60;;;;;;5001398;28;20022;-86
2023/10/11 11:00:21;;;;;;;7.47;4.65;;;26.10;78.00;;;;;;4985038;28;20018;-86
2023/10/11 11:02:47;;;;;;;11.15;4.80;;;25.90;77.80;;;;;;4978500;28;20045;-86
2023/10/11 11:05:18;;;;;;;8.10;4.72;;;25.40;78.60;;;;;;4978437;28;20396;-83
2023/10/11 11:07:47;;;;;;;11.70;4.57;;;25.10;80.50;;;;;;4980608;28;20022;-86
2023/10/11 11:10:22;;;;;;;11.20;4.93;;;24.90;80.30;;;;;;4995852;28;20028;-85
2023/10/11 11:12:49;;;;;;;13.43;4.88;;;24.60;81.80;;;;;;4998572;28;20030;-86
2023/10/11 11:15:20;;;;;;;9.85;4.70;;;24.40;83.10;;;;;;4998554;28;20056;-85
2023/10/11 11:18:01;;;;;;;11.05;4.40;;;24.50;82.30;;;;;;4986569;28;20025;-85
2023/10/11 11:20:31;;;;;;;10.35;4.80;;;24.90;82.90;;;;;;4986517;28;20088;-86
2023/10/11 11:22:57;;;;;;;9.70;5.13;;;25.60;81.40;;;;;;4992069;28;20109;-86
2023/10/11 11:25:30;;;;;;;5.95;4.18;;;26.00;79.70;;;;;;4980442;28;20073;-87
2023/10/11 11:28:03;;;;;;;15.45;4.97;;;26.40;79.80;;;;;;4970944;28;20034;-85
2023/10/11 11:30:34;;;;;;;9.48;5.25;;;26.90;77.10;;;;;;4984190;28;20022;-86
2023/10/11 11:33:19;;;;;;;9.00;4.57;;;26.90;77.00;;;;;;4967598;28;20069;-87
2023/10/11 11:35:54;;;;;;;17.50;4.53;;;27.20;77.50;;;;;;4988072;28;20466;-84
2023/10/11 11:38:25;;;;;;;9.27;4.72;;;27.50;76.80;;;;;;4970061;28;20027;-86
2023/10/11 11:41:04;;;;;;;11.90;5.53;;;27.60;74.10;;;;;;4963873;28;20379;-86
2023/10/11 11:43:34;;;;;;;8.48;4.22;;;27.70;75.40;;;;;;4994014;28;20439;-86
2023/10/11 11:46:03;;;;;;;;;;;28.70;73.70;;;;;;4976809;28;20479;-86
2023/10/11 11:48:41;;;;;;;18.27;4.70;;;28.50;72.70;;;;;;4965090;28;19906;-86
2023/10/11 11:51:16;;;;;;;9.25;4.05;;;28.40;72.20;;;;;;4967337;28;20022;-86
2023/10/11 11:53:43;;;;;;;13.40;4.38;;;28.40;71.70;;;;;;4986120;28;20476;-86
2023/10/11 11:56:11;;;;;;;9.35;4.55;;;28.50;72.40;;;;;;4971547;28;20435;-86
2023/10/11 11:58:39;;;;;;;9.80;4.38;;;28.50;72.90;;;;;;4967604;28;20390;-86
2023/10/11 12:01:15;;;;;;;11.98;4.50;;;28.70;72.70;;;;;;5001613;28;20026;-86
2023/10/11 12:03:53;;;;;;;16.05;4.75;;;28.70;72.70;;;;;;4984489;28;20090;-85
2023/10/11 12:06:22;;;;;;;11.30;4.07;;;28.30;73.00;;;;;;4979533;28;20033;-85
2023/10/11 12:09:06;;;;;;;13.05;4.32;;;28.00;73.60;;;;;;4981526;28;20557;-86
2023/10/11 12:11:32;;;;;;;9.85;4.60;;;27.50;74.60;;;;;;4980151;28;20038;-85
2023/10/11 12:14:00;;;;;;;14.35;4.85;;;27.60;74.40;;;;;;4982293;28;20113;-86
2023/10/11 12:16:27;;;;;;;10.05;4.30;;;27.40;74.70;;;;;;4979803;28;20035;-86
2023/10/11 12:18:58;;;;;;;12.15;5.03;;;27.30;75.00;;;;;;4967304;28;20434;-85
2023/10/11 12:21:25;;;;;;;12.63;4.70;;;26.90;75.80;;;;;;4980700;28;20022;-86
2023/10/11 12:23:50;;;;;;;14.05;4.40;;;26.90;76.50;;;;;;4998059;28;20025;-85
2023/10/11 12:26:17;;;;;;;11.65;4.60;;;26.90;76.50;;;;;;4994156;28;20105;-83
2023/10/11 12:28:45;;;;;;;13.73;4.82;;;26.80;77.50;;;;;;4975362;28;20035;-86
2023/10/11 12:31:11;;;;;;;9.63;4.60;;;26.80;78.50;;;;;;4994049;28;20060;-84
2023/10/11 12:33:39;;;;;;;12.13;4.35;;;26.90;78.30;;;;;;4971731;28;20034;-85
2023/10/11 12:36:06;;;;;;;20.48;4.88;;;26.90;79.60;;;;;;4968303;28;20069;-84
2023/10/11 12:38:41;;;;;;;10.20;4.40;;;27.00;76.90;;;;;;4970428;28;20030;-84
2023/10/11 12:41:14;;;;;;;13.02;5.10;;;27.10;75.80;;;;;;4984402;28;20029;-84
2023/10/11 12:43:45;;;;;;;17.58;4.68;;;26.80;75.50;;;;;;4982191;28;20029;-82
2023/10/11 12:46:10;;;;;;;19.08;5.30;;;26.70;76.10;;;;;;4988559;28;20026;-84
2023/10/11 12:48:37;;;;;;;6.93;3.75;;;26.60;77.90;;;;;;4976843;28;20089;-86
2023/10/11 12:51:06;;;;;;;11.05;4.68;;;26.50;78.50;;;;;;4993712;28;20030;-85
2023/10/11 12:53:32;;;;;;;14.00;5.10;;;26.50;77.80;;;;;;4997478;28;20073;-84
2023/10/11 12:56:00;;;;;;;14.60;5.13;;;26.50;77.70;;;;;;4965913;28;20057;-84
2023/10/11 12:58:38;;;;;;;11.35;4.43;;;26.40;78.10;;;;;;4965089;28;20027;-84
2023/10/11 13:01:25;;;;;;;16.15;4.93;;;26.50;78.00;;;;;;4970526;28;20038;-85
2023/10/11 13:04:06;;;;;;;11.95;4.80;;;26.30;78.50;;;;;;4970013;28;20117;-84
2023/10/11 13:06:39;;;;;;;13.23;4.75;;;26.40;78.20;;;;;;4975579;28;20423;-84
2023/10/11 13:09:14;;;;;;;16.98;5.65;;;26.30;79.80;;;;;;4991913;28;20144;-81
2023/10/11 13:11:44;;;;;;;11.45;4.43;;;26.50;81.40;;;;;;4977952;28;20041;-82
2023/10/11 13:14:20;;;;;;;17.40;4.82;;;26.30;80.90;;;;;;4976308;28;20306;-83
2023/10/11 13:16:54;;;;;;;21.08;4.50;;;26.30;81.50;;;;;;4979202;28;20046;-82
2023/10/11 13:19:22;;;;;;;13.55;4.45;;;26.00;80.90;;;;;;4999917;28;20475;-83
2023/10/11 13:21:48;;;;;;;14.27;5.00;;;25.60;81.40;;;;;;4982758;28;20034;-83
2023/10/11 13:24:21;;;;;;;13.23;4.35;;;25.40;81.60;;;;;;4982117;28;20152;-83
2023/10/11 13:26:51;;;;;;;17.25;5.28;;;25.30;81.90;;;;;;4984003;28;20061;-84
2023/10/11 13:29:27;;;;;;;24.15;6.45;;;25.30;81.90;;;;;;4987662;28;20105;-84
2023/10/11 13:32:04;;;;;;;14.40;4.75;;;25.20;82.30;;;;;;4980421;28;20041;-82
2023/10/11 13:34:33;;;;;;;17.83;5.18;;;25.10;82.70;;;;;;4986892;28;20038;-81
2023/10/11 13:37:00;;;;;;;18.48;5.57;;;25.00;82.60;;;;;;4984857;28;20387;-84
2023/10/11 13:42:23;;;;;;;14.82;4.90;;;24.90;84.50;;;;;;4991273;28;20026;-84
2023/10/11 13:44:54;;;;;;;17.08;5.43;;;24.90;85.60;;;;;;4977432;28;20034;-84
2023/10/11 13:47:21;;;;;;;11.85;4.95;;;24.90;84.70;;;;;;4986870;28;20037;-85
2023/10/11 13:49:49;;;;;;;18.48;5.78;;;24.90;84.70;;;;;;5002902;28;20110;-85
2023/10/11 13:52:14;;;;;;;14.93;5.45;;;24.80;85.90;;;;;;4985390;28;20050;-85
2023/10/11 13:54:42;;;;;;;16.48;4.53;;;24.70;85.20;;;;;;5003294;28;20029;-84
2023/10/11 13:57:18;;;;;;;19.50;5.70;;;24.50;85.60;;;;;;4983583;28;20027;-84
2023/10/11 13:59:50;;;;;;;12.82;4.40;;;24.50;86.70;;;;;;4983690;28;20023;-84
2023/10/11 14:05:13;;;;;;;14.52;4.53;;;24.30;87.00;;;;;;5001891;28;20484;-85
2023/10/11 14:07:49;;;;;;;14.63;5.22;;;24.30;87.90;;;;;;5001946;28;20027;-85
2023/10/11 14:10:16;;;;;;;15.82;4.97;;;24.20;88.00;;;;;;4999689;28;20026;-85
2023/10/11 14:12:43;;;;;;;13.88;4.88;;;24.20;87.10;;;;;;4982768;28;20022;-85
2023/10/11 14:15:17;;;;;;;18.17;5.15;;;24.20;87.50;;;;;;4986279;28;20117;-85
2023/10/11 14:17:49;;;;;;;17.55;4.80;;;24.20;88.30;;;;;;4984406;28;20026;-84
2023/10/11 14:20:23;;;;;;;16.35;4.78;;;24.20;88.60;;;;;;4984802;28;20032;-83